sensor_id;sensor_type;location;lat;lon;timestamp;P1;durP1;ratioP1;P2;durP2;ratioP2
9409;SDS011;4744;52.576;13.568;2023-06-22T00:01:00;9.20;;;8.60;;
9409;SDS011;4744;52.576;13.568;2023-06-22T00:03:27;9.20;;;8.50;;
9409;SDS011;4744;52.576;13.568;2023-06-22T00:05:53;9.23;;;8.57;;
9409;SDS011;4744;52.576;13.568;2023-06-22T00:08:21;8.75;;;8.05;;
9409;SDS011;4744;52.576;13.568;2023-06-22T00:10:48;9.32;;;8.63;;
9409;SDS011;4744;52.576;13.568;2023-06-22T00:13:16;9.52;;;8.73;;
9409;SDS011;4744;52.576;13.568;2023-06-22T00:15:44;8.60;;;8.00;;
9409;SDS011;4744;52.576;13.568;2023-06-22T00:18:10;9.13;;;8.40;;
9409;SDS011;4744;52.576;13.568;2023-06-22T00:20:38;7.78;;;7.20;;
9409;SDS011;4744;52.576;13.568;2023-06-22T00:23:05;7.90;;;7.30;;
9409;SDS011;4744;52.576;13.568;2023-06-22T00:25:33;8.18;;;7.57;;
9409;SDS011;4744;52.576;13.568;2023-06-22T00:28:00;9.43;;;8.73;;
9409;SDS011;4744;52.576;13.568;2023-06-22T00:30:29;9.52;;;8.82;;
9409;SDS011;4744;52.576;13.568;2023-06-22T00:32:56;9.52;;;8.82;;
9409;SDS011;4744;52.576;13.568;2023-06-22T00:35:24;8.50;;;7.90;;
9409;SDS011;4744;52.576;13.568;2023-06-22T00:37:53;10.60;;;9.45;;
9409;SDS011;4744;52.576;13.568;2023-06-22T00:40:25;10.48;;;9.68;;
9409;SDS011;4744;52.576;13.568;2023-06-22T00:42:53;9.13;;;8.32;;
9409;SDS011;4744;52.576;13.568;2023-06-22T00:45:20;10.20;;;9.30;;
9409;SDS011;4744;52.576;13.568;2023-06-22T00:47:49;10.48;;;9.68;;
9409;SDS011;4744;52.576;13.568;2023-06-22T00:50:18;10.07;;;9.27;;
9409;SDS011;4744;52.576;13.568;2023-06-22T00:52:47;9.43;;;8.70;;
9409;SDS011;4744;52.576;13.568;2023-06-22T00:55:17;9.70;;;8.90;;
9409;SDS011;4744;52.576;13.568;2023-06-22T00:57:45;9.60;;;8.80;;
9409;SDS011;4744;52.576;13.568;2023-06-22T01:00:13;10.07;;;9.38;;
9409;SDS011;4744;52.576;13.568;2023-06-22T01:02:42;9.45;;;8.70;;
9409;SDS011;4744;52.576;13.568;2023-06-22T01:05:12;9.55;;;8.85;;
9409;SDS011;4744;52.576;13.568;2023-06-22T01:07:39;9.32;;;8.60;;
9409;SDS011;4744;52.576;13.568;2023-06-22T01:10:14;8.93;;;8.23;;
9409;SDS011;4744;52.576;13.568;2023-06-22T01:12:48;10.52;;;9.73;;
9409;SDS011;4744;52.576;13.568;2023-06-22T01:15:20;11.95;;;10.95;;
9409;SDS011;4744;52.576;13.568;2023-06-22T01:17:51;11.20;;;10.15;;
9409;SDS011;4744;52.576;13.568;2023-06-22T01:20:21;10.60;;;9.70;;
9409;SDS011;4744;52.576;13.568;2023-06-22T01:22:57;9.52;;;8.82;;
9409;SDS011;4744;52.576;13.568;2023-06-22T01:25:34;9.60;;;8.90;;
9409;SDS011;4744;52.576;13.568;2023-06-22T01:28:12;9.80;;;9.07;;
9409;SDS011;4744;52.576;13.568;2023-06-22T01:30:52;10.00;;;9.20;;
9409;SDS011;4744;52.576;13.568;2023-06-22T01:33:31;9.55;;;8.75;;
9409;SDS011;4744;52.576;13.568;2023-06-22T01:36:00;9.45;;;8.75;;
9409;SDS011;4744;52.576;13.568;2023-06-22T01:38:28;9.60;;;8.80;;
9409;SDS011;4744;52.576;13.568;2023-06-22T01:40:55;10.10;;;9.15;;
9409;SDS011;4744;52.576;13.568;2023-06-22T01:43:23;10.10;;;9.30;;
9409;SDS011;4744;52.576;13.568;2023-06-22T01:45:53;10.95;;;9.98;;
9409;SDS011;4744;52.576;13.568;2023-06-22T01:48:20;10.23;;;9.48;;
9409;SDS011;4744;52.576;13.568;2023-06-22T01:50:48;9.95;;;9.15;;
9409;SDS011;4744;52.576;13.568;2023-06-22T01:53:15;9.15;;;8.45;;
9409;SDS011;4744;52.576;13.568;2023-06-22T01:55:42;9.20;;;8.50;;
9409;SDS011;4744;52.576;13.568;2023-06-22T01:58:09;8.85;;;8.15;;
9409;SDS011;4744;52.576;13.568;2023-06-22T02:00:36;9.07;;;8.38;;
9409;SDS011;4744;52.576;13.568;2023-06-22T02:03:08;10.80;;;9.90;;
9409;SDS011;4744;52.576;13.568;2023-06-22T02:05:39;10.52;;;9.60;;
9409;SDS011;4744;52.576;13.568;2023-06-22T02:08:11;10.15;;;9.25;;
9409;SDS011;4744;52.576;13.568;2023-06-22T02:10:44;8.82;;;8.07;;
9409;SDS011;4744;52.576;13.568;2023-06-22T02:13:12;9.20;;;8.50;;
9409;SDS011;4744;52.576;13.568;2023-06-22T02:15:41;9.85;;;9.05;;
9409;SDS011;4744;52.576;13.568;2023-06-22T02:18:10;9.10;;;8.40;;
9409;SDS011;4744;52.576;13.568;2023-06-22T02:20:37;9.60;;;8.90;;
9409;SDS011;4744;52.576;13.568;2023-06-22T02:23:04;9.43;;;8.73;;
9409;SDS011;4744;52.576;13.568;2023-06-22T02:25:31;10.48;;;9.68;;
9409;SDS011;4744;52.576;13.568;2023-06-22T02:27:58;11.05;;;9.98;;
9409;SDS011;4744;52.576;13.568;2023-06-22T02:30:25;11.13;;;10.23;;
9409;SDS011;4744;52.576;13.568;2023-06-22T02:32:52;10.52;;;9.73;;
9409;SDS011;4744;52.576;13.568;2023-06-22T02:35:25;11.80;;;10.80;;
9409;SDS011;4744;52.576;13.568;2023-06-22T02:37:52;9.27;;;8.57;;
9409;SDS011;4744;52.576;13.568;2023-06-22T02:40:19;9.50;;;8.80;;
9409;SDS011;4744;52.576;13.568;2023-06-22T02:42:46;9.63;;;8.82;;
9409;SDS011;4744;52.576;13.568;2023-06-22T02:45:13;9.57;;;8.80;;
9409;SDS011;4744;52.576;13.568;2023-06-22T02:47:40;9.50;;;8.70;;
9409;SDS011;4744;52.576;13.568;2023-06-22T02:50:07;9.68;;;8.90;;
9409;SDS011;4744;52.576;13.568;2023-06-22T02:52:36;9.63;;;8.93;;
9409;SDS011;4744;52.576;13.568;2023-06-22T02:55:04;9.57;;;8.88;;
9409;SDS011;4744;52.576;13.568;2023-06-22T02:57:33;9.70;;;8.90;;
9409;SDS011;4744;52.576;13.568;2023-06-22T03:00:01;10.13;;;9.32;;
9409;SDS011;4744;52.576;13.568;2023-06-22T03:02:29;11.05;;;10.05;;
9409;SDS011;4744;52.576;13.568;2023-06-22T03:04:56;11.13;;;10.23;;
9409;SDS011;4744;52.576;13.568;2023-06-22T03:07:26;10.15;;;9.35;;
9409;SDS011;4744;52.576;13.568;2023-06-22T03:09:56;9.93;;;9.23;;
9409;SDS011;4744;52.576;13.568;2023-06-22T03:12:23;10.02;;;9.23;;
9409;SDS011;4744;52.576;13.568;2023-06-22T03:14:50;10.25;;;9.25;;
9409;SDS011;4744;52.576;13.568;2023-06-22T03:17:17;11.40;;;10.45;;
9409;SDS011;4744;52.576;13.568;2023-06-22T03:19:44;11.18;;;10.15;;
9409;SDS011;4744;52.576;13.568;2023-06-22T03:22:11;11.20;;;10.30;;
9409;SDS011;4744;52.576;13.568;2023-06-22T03:24:40;11.70;;;10.50;;
9409;SDS011;4744;52.576;13.568;2023-06-22T03:27:08;10.70;;;9.80;;
9409;SDS011;4744;52.576;13.568;2023-06-22T03:29:35;11.75;;;10.75;;
9409;SDS011;4744;52.576;13.568;2023-06-22T03:32:02;13.02;;;11.85;;
9409;SDS011;4744;52.576;13.568;2023-06-22T03:34:31;12.45;;;11.45;;
9409;SDS011;4744;52.576;13.568;2023-06-22T03:36:59;12.07;;;11.07;;
9409;SDS011;4744;52.576;13.568;2023-06-22T03:39:26;11.45;;;10.07;;
9409;SDS011;4744;52.576;13.568;2023-06-22T03:41:53;11.05;;;10.20;;
9409;SDS011;4744;52.576;13.568;2023-06-22T03:44:21;10.40;;;9.60;;
9409;SDS011;4744;52.576;13.568;2023-06-22T03:46:48;11.25;;;10.32;;
9409;SDS011;4744;52.576;13.568;2023-06-22T03:49:15;12.27;;;11.15;;
9409;SDS011;4744;52.576;13.568;2023-06-22T03:51:42;12.20;;;11.00;;
9409;SDS011;4744;52.576;13.568;2023-06-22T03:54:09;11.15;;;10.25;;
9409;SDS011;4744;52.576;13.568;2023-06-22T03:56:36;12.80;;;11.57;;
9409;SDS011;4744;52.576;13.568;2023-06-22T03:59:03;11.85;;;10.88;;
9409;SDS011;4744;52.576;13.568;2023-06-22T04:01:31;12.70;;;11.48;;
9409;SDS011;4744;52.576;13.568;2023-06-22T04:03:58;10.70;;;9.70;;
9409;SDS011;4744;52.576;13.568;2023-06-22T04:06:25;10.30;;;9.40;;
9409;SDS011;4744;52.576;13.568;2023-06-22T04:08:52;10.23;;;9.30;;
9409;SDS011;4744;52.576;13.568;2023-06-22T04:11:19;9.23;;;8.52;;
9409;SDS011;4744;52.576;13.568;2023-06-22T04:13:46;11.23;;;10.10;;
9409;SDS011;4744;52.576;13.568;2023-06-22T04:16:13;11.77;;;10.60;;
9409;SDS011;4744;52.576;13.568;2023-06-22T04:18:42;11.85;;;10.70;;
9409;SDS011;4744;52.576;13.568;2023-06-22T04:21:09;13.02;;;10.43;;
9409;SDS011;4744;52.576;13.568;2023-06-22T04:23:36;10.05;;;9.23;;
9409;SDS011;4744;52.576;13.568;2023-06-22T04:26:03;10.40;;;9.40;;
9409;SDS011;4744;52.576;13.568;2023-06-22T04:28:30;8.52;;;7.90;;
9409;SDS011;4744;52.576;13.568;2023-06-22T04:31:00;8.98;;;8.18;;
9409;SDS011;4744;52.576;13.568;2023-06-22T04:33:27;11.27;;;10.13;;
9409;SDS011;4744;52.576;13.568;2023-06-22T04:35:56;9.32;;;8.63;;
9409;SDS011;4744;52.576;13.568;2023-06-22T04:38:26;9.02;;;8.13;;
9409;SDS011;4744;52.576;13.568;2023-06-22T04:40:53;9.20;;;8.40;;
9409;SDS011;4744;52.576;13.568;2023-06-22T04:43:20;9.77;;;8.88;;
9409;SDS011;4744;52.576;13.568;2023-06-22T04:45:47;9.13;;;8.30;;
9409;SDS011;4744;52.576;13.568;2023-06-22T04:48:17;9.48;;;8.48;;
9409;SDS011;4744;52.576;13.568;2023-06-22T04:50:44;7.82;;;7.18;;
9409;SDS011;4744;52.576;13.568;2023-06-22T04:53:12;8.30;;;7.50;;
9409;SDS011;4744;52.576;13.568;2023-06-22T04:55:39;6.57;;;5.97;;
9409;SDS011;4744;52.576;13.568;2023-06-22T04:58:10;7.20;;;6.25;;
9409;SDS011;4744;52.576;13.568;2023-06-22T05:00:38;8.13;;;7.05;;
9409;SDS011;4744;52.576;13.568;2023-06-22T05:03:05;6.35;;;5.75;;
9409;SDS011;4744;52.576;13.568;2023-06-22T05:05:36;8.80;;;6.95;;
9409;SDS011;4744;52.576;13.568;2023-06-22T05:08:03;7.50;;;6.80;;
9409;SDS011;4744;52.576;13.568;2023-06-22T05:10:33;6.22;;;5.72;;
9409;SDS011;4744;52.576;13.568;2023-06-22T05:13:00;6.20;;;5.43;;
9409;SDS011;4744;52.576;13.568;2023-06-22T05:15:27;5.47;;;5.07;;
9409;SDS011;4744;52.576;13.568;2023-06-22T05:17:55;6.25;;;5.70;;
9409;SDS011;4744;52.576;13.568;2023-06-22T05:20:23;5.32;;;4.88;;
9409;SDS011;4744;52.576;13.568;2023-06-22T05:22:50;5.43;;;4.93;;
9409;SDS011;4744;52.576;13.568;2023-06-22T05:25:17;5.75;;;5.25;;
9409;SDS011;4744;52.576;13.568;2023-06-22T05:27:45;6.07;;;5.57;;
9409;SDS011;4744;52.576;13.568;2023-06-22T05:30:12;5.50;;;5.10;;
9409;SDS011;4744;52.576;13.568;2023-06-22T05:32:41;4.70;;;4.40;;
9409;SDS011;4744;52.576;13.568;2023-06-22T05:35:09;5.25;;;4.85;;
9409;SDS011;4744;52.576;13.568;2023-06-22T05:37:36;5.70;;;5.30;;
9409;SDS011;4744;52.576;13.568;2023-06-22T05:40:03;5.47;;;4.97;;
9409;SDS011;4744;52.576;13.568;2023-06-22T05:42:32;11.25;;;5.53;;
9409;SDS011;4744;52.576;13.568;2023-06-22T05:45:00;5.13;;;4.65;;
9409;SDS011;4744;52.576;13.568;2023-06-22T05:47:27;6.10;;;5.22;;
9409;SDS011;4744;52.576;13.568;2023-06-22T05:49:54;6.10;;;4.43;;
9409;SDS011;4744;52.576;13.568;2023-06-22T05:52:21;4.93;;;4.53;;
9409;SDS011;4744;52.576;13.568;2023-06-22T05:54:48;6.70;;;5.15;;
9409;SDS011;4744;52.576;13.568;2023-06-22T05:57:15;5.65;;;4.40;;
9409;SDS011;4744;52.576;13.568;2023-06-22T05:59:41;5.72;;;3.97;;
9409;SDS011;4744;52.576;13.568;2023-06-22T06:02:10;3.88;;;3.58;;
9409;SDS011;4744;52.576;13.568;2023-06-22T06:04:37;4.13;;;3.83;;
9409;SDS011;4744;52.576;13.568;2023-06-22T06:07:03;4.13;;;3.75;;
9409;SDS011;4744;52.576;13.568;2023-06-22T06:09:30;3.90;;;3.60;;
9409;SDS011;4744;52.576;13.568;2023-06-22T06:11:57;3.83;;;3.50;;
9409;SDS011;4744;52.576;13.568;2023-06-22T06:14:24;4.28;;;3.85;;
9409;SDS011;4744;52.576;13.568;2023-06-22T06:16:51;3.92;;;3.60;;
9409;SDS011;4744;52.576;13.568;2023-06-22T06:19:19;3.90;;;3.60;;
9409;SDS011;4744;52.576;13.568;2023-06-22T06:21:46;3.90;;;2.80;;
9409;SDS011;4744;52.576;13.568;2023-06-22T06:24:13;4.05;;;3.58;;
9409;SDS011;4744;52.576;13.568;2023-06-22T06:26:40;3.50;;;3.20;;
9409;SDS011;4744;52.576;13.568;2023-06-22T06:29:07;4.05;;;3.65;;
9409;SDS011;4744;52.576;13.568;2023-06-22T06:31:34;3.78;;;3.47;;
9409;SDS011;4744;52.576;13.568;2023-06-22T06:34:01;4.07;;;3.20;;
9409;SDS011;4744;52.576;13.568;2023-06-22T06:36:29;4.78;;;3.80;;
9409;SDS011;4744;52.576;13.568;2023-06-22T06:38:56;3.55;;;3.22;;
9409;SDS011;4744;52.576;13.568;2023-06-22T06:41:24;3.42;;;3.13;;
9409;SDS011;4744;52.576;13.568;2023-06-22T06:43:50;2.88;;;2.60;;
9409;SDS011;4744;52.576;13.568;2023-06-22T06:46:18;3.53;;;3.22;;
9409;SDS011;4744;52.576;13.568;2023-06-22T06:48:45;3.17;;;2.88;;
9409;SDS011;4744;52.576;13.568;2023-06-22T06:51:12;4.80;;;2.80;;
9409;SDS011;4744;52.576;13.568;2023-06-22T06:53:40;3.58;;;2.75;;
9409;SDS011;4744;52.576;13.568;2023-06-22T06:56:07;3.60;;;2.90;;
9409;SDS011;4744;52.576;13.568;2023-06-22T06:58:35;4.18;;;2.92;;
9409;SDS011;4744;52.576;13.568;2023-06-22T07:01:02;3.28;;;3.00;;
9409;SDS011;4744;52.576;13.568;2023-06-22T07:03:29;4.13;;;2.90;;
9409;SDS011;4744;52.576;13.568;2023-06-22T07:05:58;2.50;;;2.40;;
9409;SDS011;4744;52.576;13.568;2023-06-22T07:08:25;3.05;;;2.72;;
9409;SDS011;4744;52.576;13.568;2023-06-22T07:10:53;4.43;;;3.15;;
9409;SDS011;4744;52.576;13.568;2023-06-22T07:13:20;3.00;;;2.80;;
9409;SDS011;4744;52.576;13.568;2023-06-22T07:15:47;3.03;;;2.70;;
9409;SDS011;4744;52.576;13.568;2023-06-22T07:18:14;2.88;;;2.63;;
9409;SDS011;4744;52.576;13.568;2023-06-22T07:20:41;2.78;;;2.58;;
9409;SDS011;4744;52.576;13.568;2023-06-22T07:23:08;2.58;;;2.35;;
9409;SDS011;4744;52.576;13.568;2023-06-22T07:25:35;2.47;;;2.20;;
9409;SDS011;4744;52.576;13.568;2023-06-22T07:28:04;3.00;;;2.30;;
9409;SDS011;4744;52.576;13.568;2023-06-22T07:30:32;2.97;;;2.55;;
9409;SDS011;4744;52.576;13.568;2023-06-22T07:32:59;3.05;;;2.50;;
9409;SDS011;4744;52.576;13.568;2023-06-22T07:35:29;2.67;;;2.47;;
9409;SDS011;4744;52.576;13.568;2023-06-22T07:37:56;3.63;;;2.60;;
9409;SDS011;4744;52.576;13.568;2023-06-22T07:40:23;2.53;;;2.33;;
9409;SDS011;4744;52.576;13.568;2023-06-22T07:42:50;2.75;;;2.55;;
9409;SDS011;4744;52.576;13.568;2023-06-22T07:45:20;2.85;;;2.53;;
9409;SDS011;4744;52.576;13.568;2023-06-22T07:47:47;2.25;;;2.15;;
9409;SDS011;4744;52.576;13.568;2023-06-22T07:50:14;2.15;;;2.05;;
9409;SDS011;4744;52.576;13.568;2023-06-22T07:52:41;2.42;;;2.22;;
9409;SDS011;4744;52.576;13.568;2023-06-22T07:55:08;2.20;;;2.00;;
9409;SDS011;4744;52.576;13.568;2023-06-22T07:57:35;2.15;;;2.00;;
9409;SDS011;4744;52.576;13.568;2023-06-22T08:00:02;2.25;;;2.05;;
9409;SDS011;4744;52.576;13.568;2023-06-22T08:02:37;2.05;;;1.95;;
9409;SDS011;4744;52.576;13.568;2023-06-22T08:05:05;2.05;;;1.90;;
9409;SDS011;4744;52.576;13.568;2023-06-22T08:07:33;3.28;;;1.95;;
9409;SDS011;4744;52.576;13.568;2023-06-22T08:10:00;2.20;;;2.00;;
9409;SDS011;4744;52.576;13.568;2023-06-22T08:12:27;2.25;;;2.00;;
9409;SDS011;4744;52.576;13.568;2023-06-22T08:14:54;2.55;;;2.35;;
9409;SDS011;4744;52.576;13.568;2023-06-22T08:17:21;2.10;;;2.00;;
9409;SDS011;4744;52.576;13.568;2023-06-22T08:19:50;2.80;;;2.60;;
9409;SDS011;4744;52.576;13.568;2023-06-22T08:22:17;3.92;;;2.45;;
9409;SDS011;4744;52.576;13.568;2023-06-22T08:24:44;2.70;;;2.50;;
9409;SDS011;4744;52.576;13.568;2023-06-22T08:27:11;2.95;;;2.40;;
9409;SDS011;4744;52.576;13.568;2023-06-22T08:29:38;2.42;;;2.22;;
9409;SDS011;4744;52.576;13.568;2023-06-22T08:32:07;3.15;;;2.40;;
9409;SDS011;4744;52.576;13.568;2023-06-22T08:34:35;2.40;;;2.20;;
9409;SDS011;4744;52.576;13.568;2023-06-22T08:37:03;2.67;;;2.22;;
9409;SDS011;4744;52.576;13.568;2023-06-22T08:39:31;2.25;;;2.15;;
9409;SDS011;4744;52.576;13.568;2023-06-22T08:41:58;3.40;;;2.80;;
9409;SDS011;4744;52.576;13.568;2023-06-22T08:44:25;2.47;;;2.28;;
9409;SDS011;4744;52.576;13.568;2023-06-22T08:46:52;2.58;;;2.38;;
9409;SDS011;4744;52.576;13.568;2023-06-22T08:49:19;5.18;;;2.53;;
9409;SDS011;4744;52.576;13.568;2023-06-22T08:51:47;2.53;;;2.35;;
9409;SDS011;4744;52.576;13.568;2023-06-22T08:54:15;2.75;;;2.40;;
9409;SDS011;4744;52.576;13.568;2023-06-22T08:56:42;2.95;;;2.75;;
9409;SDS011;4744;52.576;13.568;2023-06-22T08:59:09;2.83;;;2.55;;
9409;SDS011;4744;52.576;13.568;2023-06-22T09:01:36;2.88;;;2.67;;
9409;SDS011;4744;52.576;13.568;2023-06-22T09:04:03;3.63;;;2.47;;
9409;SDS011;4744;52.576;13.568;2023-06-22T09:09:08;2.88;;;2.47;;
9409;SDS011;4744;52.576;13.568;2023-06-22T09:11:36;3.08;;;2.63;;
9409;SDS011;4744;52.576;13.568;2023-06-22T09:14:03;2.65;;;2.45;;
9409;SDS011;4744;52.576;13.568;2023-06-22T09:16:30;5.53;;;2.53;;
9409;SDS011;4744;52.576;13.568;2023-06-22T09:18:57;2.63;;;2.47;;
9409;SDS011;4744;52.576;13.568;2023-06-22T09:21:24;2.58;;;2.38;;
9409;SDS011;4744;52.576;13.568;2023-06-22T09:23:51;3.00;;;2.70;;
9409;SDS011;4744;52.576;13.568;2023-06-22T09:26:18;2.47;;;2.28;;
9409;SDS011;4744;52.576;13.568;2023-06-22T09:28:47;2.70;;;2.55;;
9409;SDS011;4744;52.576;13.568;2023-06-22T09:31:14;5.57;;;2.75;;
9409;SDS011;4744;52.576;13.568;2023-06-22T09:33:42;2.42;;;2.25;;
9409;SDS011;4744;52.576;13.568;2023-06-22T09:36:09;2.58;;;2.40;;
9409;SDS011;4744;52.576;13.568;2023-06-22T09:38:36;2.70;;;2.50;;
9409;SDS011;4744;52.576;13.568;2023-06-22T09:41:04;2.70;;;2.50;;
9409;SDS011;4744;52.576;13.568;2023-06-22T09:43:32;3.28;;;2.53;;
9409;SDS011;4744;52.576;13.568;2023-06-22T09:46:02;2.78;;;2.50;;
9409;SDS011;4744;52.576;13.568;2023-06-22T09:48:29;2.50;;;2.40;;
9409;SDS011;4744;52.576;13.568;2023-06-22T09:50:56;3.70;;;2.40;;
9409;SDS011;4744;52.576;13.568;2023-06-22T09:53:23;2.70;;;2.50;;
9409;SDS011;4744;52.576;13.568;2023-06-22T09:55:50;2.92;;;2.70;;
9409;SDS011;4744;52.576;13.568;2023-06-22T09:58:17;2.63;;;2.42;;
9409;SDS011;4744;52.576;13.568;2023-06-22T10:00:43;2.40;;;2.20;;
9409;SDS011;4744;52.576;13.568;2023-06-22T10:03:12;2.63;;;2.42;;
9409;SDS011;4744;52.576;13.568;2023-06-22T10:05:39;2.60;;;2.40;;
9409;SDS011;4744;52.576;13.568;2023-06-22T10:08:06;2.58;;;2.45;;
9409;SDS011;4744;52.576;13.568;2023-06-22T10:10:34;2.40;;;2.20;;
9409;SDS011;4744;52.576;13.568;2023-06-22T10:13:02;3.08;;;2.55;;
9409;SDS011;4744;52.576;13.568;2023-06-22T10:15:34;2.78;;;2.30;;
9409;SDS011;4744;52.576;13.568;2023-06-22T10:18:01;2.33;;;2.13;;
9409;SDS011;4744;52.576;13.568;2023-06-22T10:20:29;2.60;;;2.40;;
9409;SDS011;4744;52.576;13.568;2023-06-22T10:22:56;2.65;;;2.42;;
9409;SDS011;4744;52.576;13.568;2023-06-22T10:25:23;2.72;;;2.53;;
9409;SDS011;4744;52.576;13.568;2023-06-22T10:27:50;3.05;;;2.85;;
9409;SDS011;4744;52.576;13.568;2023-06-22T10:30:17;2.30;;;2.20;;
9409;SDS011;4744;52.576;13.568;2023-06-22T10:32:44;2.58;;;2.38;;
9409;SDS011;4744;52.576;13.568;2023-06-22T10:35:11;4.28;;;2.70;;
9409;SDS011;4744;52.576;13.568;2023-06-22T10:37:42;2.83;;;2.60;;
9409;SDS011;4744;52.576;13.568;2023-06-22T10:40:09;2.28;;;2.08;;
9409;SDS011;4744;52.576;13.568;2023-06-22T10:42:37;2.03;;;1.92;;
9409;SDS011;4744;52.576;13.568;2023-06-22T10:45:05;2.10;;;2.00;;
9409;SDS011;4744;52.576;13.568;2023-06-22T10:47:33;2.85;;;2.30;;
9409;SDS011;4744;52.576;13.568;2023-06-22T10:50:01;2.38;;;2.20;;
9409;SDS011;4744;52.576;13.568;2023-06-22T10:52:28;2.63;;;2.42;;
9409;SDS011;4744;52.576;13.568;2023-06-22T10:54:57;2.40;;;2.20;;
9409;SDS011;4744;52.576;13.568;2023-06-22T10:57:24;2.53;;;2.33;;
9409;SDS011;4744;52.576;13.568;2023-06-22T10:59:51;2.30;;;2.20;;
9409;SDS011;4744;52.576;13.568;2023-06-22T11:02:18;2.58;;;2.38;;
9409;SDS011;4744;52.576;13.568;2023-06-22T11:04:45;2.88;;;2.67;;
9409;SDS011;4744;52.576;13.568;2023-06-22T11:07:13;2.20;;;2.10;;
9409;SDS011;4744;52.576;13.568;2023-06-22T11:09:42;2.70;;;2.50;;
9409;SDS011;4744;52.576;13.568;2023-06-22T11:12:11;2.25;;;2.15;;
9409;SDS011;4744;52.576;13.568;2023-06-22T11:14:38;2.30;;;2.20;;
9409;SDS011;4744;52.576;13.568;2023-06-22T11:17:05;2.55;;;2.35;;
9409;SDS011;4744;52.576;13.568;2023-06-22T11:19:32;2.50;;;2.30;;
9409;SDS011;4744;52.576;13.568;2023-06-22T11:21:59;2.80;;;2.60;;
9409;SDS011;4744;52.576;13.568;2023-06-22T11:24:26;2.80;;;2.60;;
9409;SDS011;4744;52.576;13.568;2023-06-22T11:26:53;2.70;;;2.50;;
9409;SDS011;4744;52.576;13.568;2023-06-22T11:29:22;3.22;;;2.55;;
9409;SDS011;4744;52.576;13.568;2023-06-22T11:31:48;2.53;;;2.40;;
9409;SDS011;4744;52.576;13.568;2023-06-22T11:34:15;2.53;;;2.33;;
9409;SDS011;4744;52.576;13.568;2023-06-22T11:36:44;2.50;;;2.30;;
9409;SDS011;4744;52.576;13.568;2023-06-22T11:39:12;2.67;;;2.50;;
9409;SDS011;4744;52.576;13.568;2023-06-22T11:41:40;2.80;;;2.60;;
9409;SDS011;4744;52.576;13.568;2023-06-22T11:44:07;2.72;;;2.53;;
9409;SDS011;4744;52.576;13.568;2023-06-22T11:46:35;2.60;;;2.40;;
9409;SDS011;4744;52.576;13.568;2023-06-22T11:49:03;2.80;;;2.60;;
9409;SDS011;4744;52.576;13.568;2023-06-22T11:51:29;2.70;;;2.47;;
9409;SDS011;4744;52.576;13.568;2023-06-22T11:53:56;2.70;;;2.50;;
9409;SDS011;4744;52.576;13.568;2023-06-22T11:56:23;2.63;;;2.42;;
9409;SDS011;4744;52.576;13.568;2023-06-22T11:58:50;2.90;;;2.60;;
9409;SDS011;4744;52.576;13.568;2023-06-22T12:01:19;2.88;;;2.67;;
9409;SDS011;4744;52.576;13.568;2023-06-22T12:03:47;3.00;;;2.80;;
9409;SDS011;4744;52.576;13.568;2023-06-22T12:06:14;2.88;;;2.67;;
9409;SDS011;4744;52.576;13.568;2023-06-22T12:08:41;2.70;;;2.50;;
9409;SDS011;4744;52.576;13.568;2023-06-22T12:11:08;2.85;;;2.65;;
9409;SDS011;4744;52.576;13.568;2023-06-22T12:13:35;3.10;;;2.80;;
9409;SDS011;4744;52.576;13.568;2023-06-22T12:16:02;2.63;;;2.50;;
9409;SDS011;4744;52.576;13.568;2023-06-22T12:18:29;2.72;;;2.50;;
9409;SDS011;4744;52.576;13.568;2023-06-22T12:20:57;4.03;;;2.70;;
9409;SDS011;4744;52.576;13.568;2023-06-22T12:23:24;2.80;;;2.60;;
9409;SDS011;4744;52.576;13.568;2023-06-22T12:25:51;2.53;;;2.42;;
9409;SDS011;4744;52.576;13.568;2023-06-22T12:28:18;2.92;;;2.72;;
9409;SDS011;4744;52.576;13.568;2023-06-22T12:30:45;3.17;;;2.97;;
9409;SDS011;4744;52.576;13.568;2023-06-22T12:33:12;3.00;;;2.80;;
9409;SDS011;4744;52.576;13.568;2023-06-22T12:35:38;3.28;;;3.08;;
9409;SDS011;4744;52.576;13.568;2023-06-22T12:38:07;3.42;;;2.80;;
9409;SDS011;4744;52.576;13.568;2023-06-22T12:40:34;3.00;;;2.80;;
9409;SDS011;4744;52.576;13.568;2023-06-22T12:43:01;3.22;;;3.00;;
9409;SDS011;4744;52.576;13.568;2023-06-22T12:45:28;3.40;;;3.20;;
9409;SDS011;4744;52.576;13.568;2023-06-22T12:47:58;2.85;;;2.75;;
9409;SDS011;4744;52.576;13.568;2023-06-22T12:50:25;2.92;;;2.72;;
9409;SDS011;4744;52.576;13.568;2023-06-22T12:52:52;4.00;;;2.97;;
9409;SDS011;4744;52.576;13.568;2023-06-22T12:55:20;3.10;;;2.90;;
9409;SDS011;4744;52.576;13.568;2023-06-22T12:57:47;2.88;;;2.72;;
9409;SDS011;4744;52.576;13.568;2023-06-22T13:00:14;3.40;;;3.10;;
9409;SDS011;4744;52.576;13.568;2023-06-22T13:02:42;4.18;;;3.20;;
9409;SDS011;4744;52.576;13.568;2023-06-22T13:05:09;3.30;;;3.10;;
9409;SDS011;4744;52.576;13.568;2023-06-22T13:07:36;5.35;;;3.47;;
9409;SDS011;4744;52.576;13.568;2023-06-22T13:10:03;3.90;;;3.60;;
9409;SDS011;4744;52.576;13.568;2023-06-22T13:12:32;3.60;;;3.40;;
9409;SDS011;4744;52.576;13.568;2023-06-22T13:14:59;3.58;;;3.20;;
9409;SDS011;4744;52.576;13.568;2023-06-22T13:17:27;3.80;;;3.60;;
9409;SDS011;4744;52.576;13.568;2023-06-22T13:19:54;3.63;;;3.33;;
9409;SDS011;4744;52.576;13.568;2023-06-22T13:22:28;3.03;;;2.92;;
9409;SDS011;4744;52.576;13.568;2023-06-22T13:24:56;3.67;;;3.38;;
9409;SDS011;4744;52.576;13.568;2023-06-22T13:27:24;3.05;;;2.85;;
9409;SDS011;4744;52.576;13.568;2023-06-22T13:29:52;3.13;;;2.92;;
9409;SDS011;4744;52.576;13.568;2023-06-22T13:32:19;3.28;;;3.08;;
9409;SDS011;4744;52.576;13.568;2023-06-22T13:34:46;3.10;;;2.90;;
9409;SDS011;4744;52.576;13.568;2023-06-22T13:37:13;4.00;;;3.70;;
9409;SDS011;4744;52.576;13.568;2023-06-22T13:39:41;3.80;;;3.60;;
9409;SDS011;4744;52.576;13.568;2023-06-22T13:42:08;4.00;;;3.60;;
9409;SDS011;4744;52.576;13.568;2023-06-22T13:44:35;5.05;;;3.47;;
9409;SDS011;4744;52.576;13.568;2023-06-22T13:47:03;3.38;;;3.17;;
9409;SDS011;4744;52.576;13.568;2023-06-22T13:49:31;3.60;;;3.40;;
9409;SDS011;4744;52.576;13.568;2023-06-22T13:51:58;3.35;;;3.15;;
9409;SDS011;4744;52.576;13.568;2023-06-22T13:54:25;3.85;;;3.55;;
9409;SDS011;4744;52.576;13.568;2023-06-22T13:56:52;3.30;;;3.10;;
9409;SDS011;4744;52.576;13.568;2023-06-22T13:59:19;3.97;;;3.72;;
9409;SDS011;4744;52.576;13.568;2023-06-22T14:01:46;4.15;;;3.92;;
9409;SDS011;4744;52.576;13.568;2023-06-22T14:04:14;3.42;;;3.22;;
9409;SDS011;4744;52.576;13.568;2023-06-22T14:06:41;3.80;;;3.50;;
9409;SDS011;4744;52.576;13.568;2023-06-22T14:09:08;3.90;;;3.60;;
9409;SDS011;4744;52.576;13.568;2023-06-22T14:11:35;3.70;;;3.50;;
9409;SDS011;4744;52.576;13.568;2023-06-22T14:14:02;3.75;;;3.55;;
9409;SDS011;4744;52.576;13.568;2023-06-22T14:16:29;4.18;;;3.78;;
9409;SDS011;4744;52.576;13.568;2023-06-22T14:18:56;3.70;;;3.42;;
9409;SDS011;4744;52.576;13.568;2023-06-22T14:21:25;3.70;;;3.40;;
9409;SDS011;4744;52.576;13.568;2023-06-22T14:23:52;3.47;;;3.25;;
9409;SDS011;4744;52.576;13.568;2023-06-22T14:26:19;3.40;;;3.20;;
9409;SDS011;4744;52.576;13.568;2023-06-22T14:28:47;3.13;;;3.00;;
9409;SDS011;4744;52.576;13.568;2023-06-22T14:31:15;3.10;;;2.90;;
9409;SDS011;4744;52.576;13.568;2023-06-22T14:33:44;3.95;;;3.65;;
9409;SDS011;4744;52.576;13.568;2023-06-22T14:36:13;3.70;;;3.50;;
9409;SDS011;4744;52.576;13.568;2023-06-22T14:38:41;3.53;;;3.33;;
9409;SDS011;4744;52.576;13.568;2023-06-22T14:41:08;3.95;;;3.65;;
9409;SDS011;4744;52.576;13.568;2023-06-22T14:43:35;3.90;;;3.63;;
9409;SDS011;4744;52.576;13.568;2023-06-22T14:46:02;4.20;;;3.90;;
9409;SDS011;4744;52.576;13.568;2023-06-22T14:48:29;3.75;;;3.45;;
9409;SDS011;4744;52.576;13.568;2023-06-22T14:50:56;3.75;;;3.45;;
9409;SDS011;4744;52.576;13.568;2023-06-22T14:53:25;3.92;;;3.63;;
9409;SDS011;4744;52.576;13.568;2023-06-22T14:55:53;3.47;;;3.28;;
9409;SDS011;4744;52.576;13.568;2023-06-22T14:58:21;3.78;;;3.47;;
9409;SDS011;4744;52.576;13.568;2023-06-22T15:00:48;3.45;;;3.10;;
9409;SDS011;4744;52.576;13.568;2023-06-22T15:03:15;3.60;;;3.30;;